createdAt,value
2022-12-18T00:02:59.107Z,73.12
2022-12-18T00:06:04.034Z,73.66
2022-12-18T00:09:06.156Z,73.51
2022-12-18T00:15:21.125Z,74.08
2022-12-18T00:18:23.415Z,74.12
2022-12-18T00:21:25.987Z,74.42
2022-12-18T00:24:30.197Z,74.14
2022-12-18T00:27:32.299Z,74.22
2022-12-18T00:30:34.265Z,74.66
2022-12-18T00:33:37.620Z,74.59
2022-12-18T00:36:44.644Z,74.53
2022-12-18T00:39:47.150Z,74.75
2022-12-18T00:42:57.723Z,74.89
2022-12-18T00:45:59.652Z,74.35
2022-12-18T00:49:02.111Z,74.65
2022-12-18T00:52:03.980Z,74.32
2022-12-18T00:55:06.771Z,74.31
2022-12-18T00:58:11.556Z,74.50
2022-12-18T01:01:13.608Z,74.78
2022-12-18T01:04:16.310Z,74.98
2022-12-18T01:07:18.255Z,74.83
2022-12-18T01:10:21.238Z,74.86
2022-12-18T01:13:26.212Z,75.63
2022-12-18T01:16:28.501Z,74.64
2022-12-18T01:19:31.171Z,74.94
2022-12-18T01:22:34.453Z,74.23
2022-12-18T01:25:39.879Z,75.45
2022-12-18T01:28:44.965Z,74.54
2022-12-18T01:31:48.075Z,74.68
2022-12-18T01:34:50.008Z,74.42
2022-12-18T01:37:56.271Z,75.20
2022-12-18T01:41:00.168Z,74.77
2022-12-18T01:44:02.101Z,74.93
2022-12-18T01:47:04.321Z,74.09
2022-12-18T01:50:12.088Z,74.42
2022-12-18T01:53:20.236Z,74.47
2022-12-18T01:56:23.201Z,74.35
2022-12-18T01:59:25.347Z,75.02
2022-12-18T02:02:30.107Z,74.53
2022-12-18T02:05:47.502Z,74.71
2022-12-18T02:09:03.403Z,74.58
2022-12-18T02:12:19.932Z,74.71
2022-12-18T02:15:40.252Z,74.47
2022-12-18T02:18:49.132Z,74.40
2022-12-18T02:21:58.306Z,74.76
2022-12-18T02:25:37.425Z,73.67
2022-12-18T02:28:45.178Z,74.33
2022-12-18T02:31:53.581Z,74.60
2022-12-18T02:34:58.510Z,74.13
2022-12-18T02:38:01.979Z,74.37
2022-12-18T02:41:07.215Z,74.51
2022-12-18T02:44:14.467Z,73.80
2022-12-18T02:47:21.538Z,74.38
2022-12-18T02:50:39.352Z,74.61
2022-12-18T02:53:50.915Z,74.71
2022-12-18T02:56:59.412Z,75.62
2022-12-18T03:00:21.624Z,75.03
2022-12-18T03:03:31.187Z,75.13
2022-12-18T03:06:48.553Z,75.42
2022-12-18T03:09:54.592Z,75.20
2022-12-18T03:13:09.993Z,75.43
2022-12-18T03:16:16.941Z,75.55
2022-12-18T03:19:23.396Z,75.63
2022-12-18T03:22:31.352Z,75.20
2022-12-18T03:25:37.091Z,75.43
2022-12-18T03:28:55.682Z,75.15
2022-12-18T03:32:05.608Z,74.79
2022-12-18T03:35:10.636Z,74.94
2022-12-18T03:38:13.335Z,75.76
2022-12-18T03:41:34.837Z,75.48
2022-12-18T03:45:15.059Z,76.42
2022-12-18T03:48:41.764Z,75.84
2022-12-18T03:51:49.032Z,77.09
2022-12-18T03:54:52.691Z,76.66
2022-12-18T03:57:55.489Z,76.95
2022-12-18T04:01:02.521Z,76.41
2022-12-18T04:04:06.039Z,76.91
2022-12-18T04:07:08.876Z,76.38
2022-12-18T04:10:11.944Z,75.94
2022-12-18T04:13:13.904Z,77.01
2022-12-18T04:16:16.171Z,77.78
2022-12-18T04:19:18.056Z,77.34
2022-12-18T04:22:20.304Z,77.41
2022-12-18T04:25:22.545Z,76.98
2022-12-18T04:28:24.665Z,76.11
2022-12-18T04:31:27.333Z,75.52
2022-12-18T04:34:29.302Z,76.63
2022-12-18T04:37:32.812Z,77.06
2022-12-18T04:40:35.272Z,75.94
2022-12-18T04:43:37.500Z,75.94
2022-12-18T04:46:39.692Z,77.12
2022-12-18T04:49:41.743Z,78.08
2022-12-18T04:52:44.327Z,79.18
2022-12-18T04:55:48.982Z,78.98
2022-12-18T04:58:52.175Z,78.77
2022-12-18T05:01:55.323Z,78.79
2022-12-18T05:04:58.208Z,78.43
2022-12-18T05:08:01.509Z,78.61
2022-12-18T05:11:10.003Z,78.71
2022-12-18T05:14:12.491Z,79.64
2022-12-18T05:17:14.349Z,79.78
2022-12-18T05:20:19.453Z,78.99
2022-12-18T05:23:22.563Z,79.31
2022-12-18T05:26:25.930Z,78.89
2022-12-18T05:29:27.962Z,79.42
2022-12-18T05:32:30.236Z,79.33
2022-12-18T05:35:32.361Z,78.90
2022-12-18T05:38:36.319Z,78.95
2022-12-18T05:41:40.119Z,79.82
2022-12-18T05:44:42.167Z,79.99
2022-12-18T05:47:44.369Z,80.29
2022-12-18T05:50:49.638Z,80.66
2022-12-18T05:53:51.590Z,80.31
2022-12-18T05:56:53.473Z,79.69
2022-12-18T05:59:55.658Z,80.68
2022-12-18T06:03:00.109Z,79.96
2022-12-18T06:06:02.943Z,80.23
2022-12-18T06:09:10.471Z,79.70
2022-12-18T06:12:12.456Z,78.24
2022-12-18T06:15:16.185Z,78.13
2022-12-18T06:18:19.000Z,78.64
2022-12-18T06:21:22.140Z,78.78
2022-12-18T06:24:24.315Z,79.17
2022-12-18T06:27:26.281Z,78.92
2022-12-18T06:30:28.331Z,79.06
2022-12-18T06:33:31.459Z,79.95
2022-12-18T06:36:33.410Z,80.27
2022-12-18T06:39:35.347Z,79.68
2022-12-18T06:42:37.739Z,79.57
2022-12-18T06:45:40.158Z,80.15
2022-12-18T06:48:42.530Z,79.55
2022-12-18T06:51:44.373Z,79.63
2022-12-18T06:54:46.242Z,78.69
2022-12-18T06:57:48.270Z,79.05
2022-12-18T07:00:50.216Z,79.01
2022-12-18T07:03:56.567Z,79.15
2022-12-18T07:06:58.738Z,80.20
2022-12-18T07:10:01.856Z,80.45
2022-12-18T07:13:03.905Z,80.42
2022-12-18T07:16:24.243Z,80.81
2022-12-18T07:19:27.357Z,79.69
2022-12-18T07:22:29.379Z,80.15
2022-12-18T07:25:38.866Z,79.65
2022-12-18T07:28:42.045Z,79.06
2022-12-18T07:31:44.161Z,79.42
2022-12-18T07:34:47.102Z,78.95
2022-12-18T07:37:49.182Z,78.59
2022-12-18T07:40:51.843Z,78.97
2022-12-18T07:43:53.865Z,77.29
2022-12-18T07:46:55.711Z,77.36
2022-12-18T07:49:57.898Z,77.80
2022-12-18T07:53:04.664Z,77.75
2022-12-18T07:56:29.145Z,77.53
2022-12-18T07:59:32.850Z,77.80
2022-12-18T08:02:35.158Z,77.77
2022-12-18T08:05:38.628Z,77.72
2022-12-18T08:08:42.419Z,77.13
2022-12-18T08:11:45.564Z,77.46
2022-12-18T08:14:47.555Z,76.79
2022-12-18T08:17:49.874Z,76.75
2022-12-18T08:20:53.688Z,76.90
2022-12-18T08:23:58.063Z,77.23
2022-12-18T08:27:27.981Z,78.21
2022-12-18T08:30:23.696Z,77.61
2022-12-18T08:33:26.041Z,77.69
2022-12-18T08:36:28.681Z,77.68
2022-12-18T08:39:31.589Z,77.99
2022-12-18T08:43:05.929Z,77.59
2022-12-18T08:46:08.201Z,76.31
2022-12-18T08:49:12.386Z,76.83
2022-12-18T08:52:14.586Z,77.64
2022-12-18T08:55:16.827Z,77.16
2022-12-18T08:58:21.872Z,77.29
2022-12-18T09:01:24.476Z,76.51
2022-12-18T09:04:26.479Z,76.09
2022-12-18T09:07:28.477Z,76.57
2022-12-18T09:10:33.194Z,76.27
2022-12-18T09:13:35.852Z,76.90
2022-12-18T09:16:38.119Z,76.31
2022-12-18T09:19:40.136Z,76.42
2022-12-18T09:22:41.964Z,76.49
2022-12-18T09:25:43.857Z,76.58
2022-12-18T09:28:45.812Z,75.47
2022-12-18T09:31:49.164Z,76.55
2022-12-18T09:34:51.196Z,75.92
2022-12-18T09:37:56.216Z,75.60
2022-12-18T09:41:07.009Z,76.44
2022-12-18T09:44:26.125Z,76.69
2022-12-18T09:47:40.381Z,76.47
2022-12-18T09:50:43.961Z,75.67
2022-12-18T09:53:52.770Z,76.14
2022-12-18T09:56:54.829Z,75.18
2022-12-18T10:00:05.820Z,74.46
2022-12-18T10:03:14.096Z,74.63
2022-12-18T10:06:40.525Z,73.85
2022-12-18T10:09:55.006Z,74.33
2022-12-18T10:13:06.027Z,72.93
2022-12-18T10:16:39.038Z,74.20
2022-12-18T10:19:51.143Z,73.55
2022-12-18T10:23:21.196Z,72.51
2022-12-18T10:26:23.449Z,73.68
2022-12-18T10:29:26.435Z,73.36
2022-12-18T10:32:31.437Z,74.75
2022-12-18T10:35:33.400Z,73.99
2022-12-18T10:38:35.537Z,72.55
2022-12-18T10:41:37.652Z,71.58
2022-12-18T10:44:39.468Z,72.22
2022-12-18T10:47:50.045Z,72.04
2022-12-18T10:54:18.949Z,71.64
2022-12-18T10:57:42.623Z,71.86
2022-12-18T11:00:44.967Z,71.64
2022-12-18T11:04:01.749Z,72.24
2022-12-18T11:07:10.201Z,70.83
2022-12-18T11:10:19.011Z,72.12
2022-12-18T11:13:24.172Z,71.05
2022-12-18T11:16:28.917Z,71.16
2022-12-18T11:19:42.521Z,70.88
2022-12-18T11:22:44.554Z,70.07
2022-12-18T11:25:55.201Z,69.81
2022-12-18T11:29:16.804Z,70.17
2022-12-18T11:32:36.258Z,68.76
2022-12-18T11:35:53.034Z,69.22
2022-12-18T11:38:58.358Z,69.19
2022-12-18T11:42:15.895Z,68.78
2022-12-18T11:45:43.531Z,68.26
2022-12-18T11:48:53.352Z,67.55
2022-12-18T11:52:18.313Z,68.90
2022-12-18T11:55:32.449Z,68.33
2022-12-18T11:58:53.844Z,66.14
2022-12-18T12:02:30.844Z,66.77
2022-12-18T12:05:43.982Z,65.18
2022-12-18T12:09:20.131Z,64.76
2022-12-18T12:12:52.232Z,64.05
2022-12-18T12:16:03.445Z,64.17
2022-12-18T12:19:23.978Z,63.78
2022-12-18T12:22:38.500Z,64.90
2022-12-18T12:25:49.629Z,64.19
2022-12-18T12:28:58.638Z,61.97
2022-12-18T12:32:08.825Z,61.97
2022-12-18T12:35:20.391Z,63.05
2022-12-18T12:38:29.910Z,63.65
2022-12-18T12:41:53.456Z,64.70
2022-12-18T12:44:59.802Z,63.60
2022-12-18T12:48:06.821Z,63.80
2022-12-18T12:51:31.487Z,64.32
2022-12-18T12:54:36.150Z,61.61
2022-12-18T12:57:42.754Z,61.89
2022-12-18T13:01:04.468Z,63.31
2022-12-18T13:04:32.652Z,63.01
2022-12-18T13:07:47.188Z,62.84
2022-12-18T13:10:49.496Z,63.85
2022-12-18T13:13:57.025Z,63.42
2022-12-18T13:17:30.846Z,64.00
2022-12-18T13:21:04.091Z,63.54
2022-12-18T13:24:22.993Z,64.38
2022-12-18T13:27:54.921Z,64.84
2022-12-18T13:30:58.877Z,65.30
2022-12-18T13:34:28.420Z,64.34
2022-12-18T13:37:34.025Z,64.07
2022-12-18T13:40:48.575Z,64.41
2022-12-18T13:43:52.764Z,64.86
2022-12-18T13:46:55.446Z,65.16
2022-12-18T13:49:58.225Z,65.45
2022-12-18T13:53:03.231Z,65.96
2022-12-18T13:56:06.350Z,65.14
2022-12-18T13:59:25.035Z,65.86
2022-12-18T14:02:29.480Z,64.34
2022-12-18T14:05:36.442Z,64.66
2022-12-18T14:08:43.254Z,65.33
2022-12-18T14:11:51.257Z,64.67
2022-12-18T14:14:55.042Z,64.46
2022-12-18T14:18:01.396Z,63.57
2022-12-18T14:21:06.003Z,64.22
2022-12-18T14:24:20.242Z,64.70
2022-12-18T14:27:26.868Z,64.52
2022-12-18T14:30:33.063Z,64.97
2022-12-18T14:33:35.021Z,64.22
2022-12-18T14:36:37.272Z,65.00
2022-12-18T14:39:39.905Z,65.30
2022-12-18T14:42:43.278Z,65.64
2022-12-18T14:45:47.585Z,65.94
2022-12-18T14:48:49.850Z,66.23
2022-12-18T14:51:59.158Z,66.99
2022-12-18T14:55:01.212Z,67.80
2022-12-18T14:58:03.512Z,68.25
2022-12-18T15:01:05.645Z,68.30
2022-12-18T15:04:26.269Z,68.17
2022-12-18T15:07:40.605Z,68.36
2022-12-18T15:10:48.957Z,68.87
2022-12-18T15:13:53.362Z,68.83
2022-12-18T15:16:57.577Z,69.28
2022-12-18T15:20:10.093Z,68.91
2022-12-18T15:23:27.189Z,69.37
2022-12-18T15:26:38.549Z,69.83
2022-12-18T15:29:40.805Z,70.32
2022-12-18T15:32:43.241Z,70.92
2022-12-18T15:35:47.301Z,70.34
2022-12-18T15:38:58.889Z,70.45
2022-12-18T15:42:28.690Z,70.29
2022-12-18T15:45:31.127Z,70.18
2022-12-18T15:48:36.503Z,71.00
2022-12-18T15:51:39.476Z,71.38
2022-12-18T15:55:00.867Z,70.90
2022-12-18T15:58:02.669Z,71.02
2022-12-18T16:01:05.271Z,71.34
2022-12-18T16:04:08.090Z,70.56
2022-12-18T16:07:15.123Z,70.66
2022-12-18T16:10:20.856Z,71.43
2022-12-18T16:13:24.105Z,72.30
2022-12-18T16:16:26.374Z,72.18
2022-12-18T16:19:31.050Z,72.37
2022-12-18T16:22:33.405Z,72.24
2022-12-18T16:25:35.277Z,72.96
2022-12-18T16:28:37.815Z,72.56
2022-12-18T16:31:40.479Z,73.40
2022-12-18T16:34:43.408Z,74.36
2022-12-18T16:37:45.605Z,72.88
2022-12-18T16:41:07.560Z,73.12
2022-12-18T16:44:10.077Z,72.93
2022-12-18T16:47:14.879Z,73.32
2022-12-18T16:50:17.769Z,74.17
2022-12-18T16:53:19.913Z,74.23
2022-12-18T16:56:22.523Z,74.50
2022-12-18T16:59:26.859Z,73.55
2022-12-18T17:02:29.459Z,74.32
2022-12-18T17:05:34.108Z,74.75
2022-12-18T17:08:36.765Z,74.89
2022-12-18T17:11:39.111Z,73.91
2022-12-18T17:14:41.587Z,74.87
2022-12-18T17:17:44.557Z,74.92
2022-12-18T17:20:47.032Z,75.11
2022-12-18T17:23:53.345Z,75.57
2022-12-18T17:26:55.289Z,75.78
2022-12-18T17:29:57.467Z,75.82
2022-12-18T17:32:59.934Z,75.92
2022-12-18T17:36:04.442Z,75.56
2022-12-18T17:39:07.666Z,75.61
2022-12-18T17:42:10.899Z,74.51
2022-12-18T17:45:17.423Z,75.33
2022-12-18T17:48:19.915Z,75.64
2022-12-18T17:51:22.306Z,76.34
2022-12-18T17:54:24.398Z,75.02
2022-12-18T17:57:26.657Z,75.33
2022-12-18T18:03:33.828Z,76.41
2022-12-18T18:06:39.011Z,76.92
2022-12-18T18:09:42.875Z,76.83
2022-12-18T18:13:03.516Z,77.53
2022-12-18T18:16:08.116Z,77.00
2022-12-18T18:19:13.249Z,76.82
2022-12-18T18:22:15.739Z,76.27
2022-12-18T18:25:18.237Z,76.77
2022-12-18T18:28:21.379Z,76.85
2022-12-18T18:31:24.689Z,77.53
2022-12-18T18:34:30.420Z,78.09
2022-12-18T18:37:33.061Z,78.38
2022-12-18T18:40:37.344Z,78.67
2022-12-18T18:43:39.985Z,77.82
2022-12-18T18:46:42.786Z,78.36
2022-12-18T18:49:45.039Z,78.92
2022-12-18T18:52:47.994Z,78.36
2022-12-18T18:56:17.283Z,77.73
2022-12-18T18:59:12.731Z,78.15
2022-12-18T19:02:18.204Z,78.21
2022-12-18T19:05:22.314Z,78.47
2022-12-18T19:08:24.600Z,78.70
2022-12-18T19:11:45.801Z,78.32
2022-12-18T19:14:48.233Z,79.03
2022-12-18T19:17:50.391Z,79.82
2022-12-18T19:21:02.840Z,78.60
2022-12-18T19:24:06.286Z,79.77
2022-12-18T19:27:08.369Z,79.86
2022-12-18T19:30:10.940Z,78.63
2022-12-18T19:33:41.977Z,78.88
2022-12-18T19:36:39.280Z,78.86
2022-12-18T19:39:41.462Z,79.13
2022-12-18T19:42:43.896Z,78.70
2022-12-18T19:45:55.088Z,79.12
2022-12-18T19:48:59.843Z,79.16
2022-12-18T19:52:03.182Z,78.65
2022-12-18T19:55:05.868Z,78.21
2022-12-18T19:58:11.207Z,77.55
2022-12-18T20:01:16.428Z,77.21
2022-12-18T20:04:19.184Z,78.14
2022-12-18T20:07:21.588Z,78.09
2022-12-18T20:10:24.846Z,78.07
2022-12-18T20:13:26.886Z,78.04
2022-12-18T20:16:30.226Z,78.17
2022-12-18T20:19:34.160Z,78.56
2022-12-18T20:22:37.461Z,78.32
2022-12-18T20:25:41.512Z,78.53
2022-12-18T20:28:43.561Z,78.97
2022-12-18T20:31:45.927Z,78.58
2022-12-18T20:34:47.890Z,78.58
2022-12-18T20:37:50.938Z,78.98
2022-12-18T20:40:56.500Z,78.57
2022-12-18T20:43:59.134Z,79.67
2022-12-18T20:47:08.457Z,79.67
2022-12-18T20:50:11.693Z,79.95
2022-12-18T20:53:13.681Z,80.36
2022-12-18T20:56:21.569Z,79.92
2022-12-18T20:59:25.871Z,80.24
2022-12-18T21:02:28.462Z,79.82
2022-12-18T21:05:31.414Z,80.36
2022-12-18T21:08:35.298Z,80.07
2022-12-18T21:11:55.980Z,80.67
2022-12-18T21:14:59.792Z,80.39
2022-12-18T21:18:01.882Z,79.97
2022-12-18T21:21:03.796Z,80.45
2022-12-18T21:24:07.686Z,80.00
2022-12-18T21:27:10.601Z,79.49
2022-12-18T21:30:17.223Z,79.25
2022-12-18T21:33:19.131Z,79.74
2022-12-18T21:36:21.185Z,78.79
2022-12-18T21:39:23.952Z,79.87
2022-12-18T21:42:44.976Z,79.59
2022-12-18T21:45:47.072Z,79.52
2022-12-18T21:48:49.285Z,79.89
2022-12-18T21:51:57.117Z,80.47
2022-12-18T21:55:06.256Z,80.10
2022-12-18T21:58:10.995Z,80.41
2022-12-18T22:01:13.131Z,80.50
2022-12-18T22:04:16.026Z,80.89
2022-12-18T22:07:18.456Z,80.55
2022-12-18T22:10:21.017Z,81.54
2022-12-18T22:13:22.885Z,82.09
2022-12-18T22:16:25.010Z,82.48
2022-12-18T22:19:27.092Z,82.52
2022-12-18T22:22:29.258Z,81.63
2022-12-18T22:25:31.369Z,82.83
2022-12-18T22:28:54.404Z,82.40
2022-12-18T22:31:56.268Z,82.84
2022-12-18T22:35:05.248Z,82.62
2022-12-18T22:38:08.654Z,82.55
2022-12-18T22:41:10.901Z,82.36
2022-12-18T22:44:15.695Z,82.44
2022-12-18T22:47:21.908Z,83.38
2022-12-18T22:50:27.088Z,83.13
2022-12-18T22:53:30.503Z,83.64
2022-12-18T22:56:32.332Z,83.44
2022-12-18T22:59:34.897Z,83.78
2022-12-18T23:02:37.144Z,84.09
2022-12-18T23:05:39.238Z,84.04
2022-12-18T23:08:41.759Z,84.47
2022-12-18T23:11:44.876Z,83.63
2022-12-18T23:14:47.406Z,84.03
2022-12-18T23:17:49.484Z,83.30
2022-12-18T23:20:51.702Z,84.15
2022-12-18T23:23:57.311Z,84.31
2022-12-18T23:26:59.321Z,84.28
2022-12-18T23:30:01.345Z,85.38
2022-12-18T23:33:04.839Z,86.03
2022-12-18T23:36:07.505Z,88.38
2022-12-18T23:39:11.485Z,89.00
2022-12-18T23:42:14.864Z,88.83
2022-12-18T23:45:17.953Z,89.36
2022-12-18T23:48:21.339Z,88.30
2022-12-18T23:51:25.714Z,87.10
2022-12-18T23:54:33.402Z,87.12
2022-12-18T23:57:35.774Z,86.97
